Mont Saint Michel — FNMT — position and weather

sailwx.info

Track history (hours):
 
Tides and Currents Weather Stations Pressure Air Temp Water Temp Dewpoint Dewpoint Depression Visibility Wind Speed Wind Dir Waves Ship Positions

Mont Saint Michel

Last reported at 2016-Feb-12 17:33 UTC. Time now 2016-Feb-12 18:09 UTC.
Position N 50°26' W 000°58'.

Length 173 m; beam 29 m.

Type: Ship. MMSI: 227023100.

Date/timePositionNaut miles runAvg speedWind from/ knotsBaromVisibWave heightAir tempDewpointWater temp
2016-Feb-12 17:33N 50°26' W 000°58'3316.6
2016-Feb-12 15:33N 49°56' W 000°36'1717.0
2016-Feb-12 14:34N 49°40' W 000°26'1716.6
2016-Feb-12 13:33N 49°25' W 000°16'7 7.4
2016-Feb-12 12:33N 49°17' W 000°15'0 0.0
2016-Feb-12 11:33N 49°17' W 000°15'0 0.0
2016-Feb-12 10:33N 49°17' W 000°15'0 0.0
2016-Feb-12 09:33N 49°17' W 000°15'0 0.0
2016-Feb-12 08:33N 49°17' W 000°15'0 0.0
2016-Feb-12 07:33N 49°17' W 000°15'0 0.0
2016-Feb-12 06:33N 49°17' W 000°15'10 9.6
2016-Feb-12 05:33N 49°27' W 000°17'1515.0
2016-Feb-12 04:33N 49°40' W 000°27'1313.1
2016-Feb-12 03:33N 49°53' W 000°33'3313.7
2016-Feb-12 01:07N 50°24' W 000°51'814.4
2016-Feb-12 00:33N 50°32' W 000°55'1414.2
2016-Feb-11 23:34N 50°45' W 001°05'4 4.1
2016-Feb-11 22:34N 50°49' W 001°06'0 0.0
2016-Feb-11 21:34N 50°49' W 001°06'5 5.1
2016-Feb-11 20:33N 50°44' W 001°03'1818.4
2016-Feb-11 19:33N 50°27' W 000°53'3919.3
2016-Feb-11 17:33N 49°50' W 000°32'2121.1
2016-Feb-11 16:33N 49°31' W 000°19'1414.1
2016-Feb-11 15:33N 49°17' W 000°15'0 0.0
2016-Feb-11 14:33N 49°17' W 000°15'4 4.0
2016-Feb-11 13:33N 49°21' W 000°14'2019.9
2016-Feb-11 12:34N 49°41' W 000°21'4219.9
2016-Feb-11 10:28N 50°20' W 000°44'1820.3
2016-Feb-11 09:34N 50°36' W 000°58'1313.4
2016-Feb-11 08:33N 50°48' W 001°07'1 0.9
2016-Feb-11 07:34N 50°49' W 001°06'1 0.9
2016-Feb-11 06:34N 50°48' W 001°07'1313.3
2016-Feb-11 05:33N 50°36' W 000°58'1211.9
2016-Feb-11 04:33N 50°25' W 000°52'3511.8
2016-Feb-11 01:33N 49°52' W 000°33'1212.0
2016-Feb-11 00:33N 49°41' W 000°26'1211.7
2016-Feb-10 23:34N 49°30' W 000°19'1212.0
2016-Feb-10 22:33N 49°18' W 000°15'1 0.7
2016-Feb-10 21:33N 49°17' W 000°15'0 0.0
2016-Feb-10 20:33N 49°17' W 000°15'1110.6
2016-Feb-10 19:34N 49°27' W 000°21'2121.1
2016-Feb-10 18:34N 49°47' W 000°32'4120.5
2016-Feb-10 16:33N 50°25' W 000°55'1918.9
2016-Feb-10 15:34N 50°44' W 001°03'5 5.5
2016-Feb-10 14:33N 50°49' W 001°06'0 0.4
2016-Feb-10 13:33N 50°49' W 001°06'1414.1
2016-Feb-10 12:33N 50°36' W 000°57'3817.0
2016-Feb-10 10:20N 50°02' W 000°31'1316.5
2016-Feb-10 09:34N 49°49' W 000°27'1717.4
2016-Feb-10 08:34N 49°33' W 000°20'1615.6
2016-Feb-10 07:33N 49°17' W 000°15'0 0.1
2016-Feb-10 06:34N 49°17' W 000°15'0 0.1
2016-Feb-10 05:34N 49°17' W 000°15'1312.7
2016-Feb-10 04:33N 49°30' W 000°18'1717.4
2016-Feb-10 03:33N 49°46' W 000°29'4017.0
2016-Feb-10 01:10N 50°23' W 000°52'1016.1
2016-Feb-10 00:33N 50°33' W 000°56'1414.0
2016-Feb-09 23:33N 50°46' W 001°05'3 3.2
2016-Feb-09 22:34N 50°49' W 001°06'0 0.0
2016-Feb-09 21:33N 50°49' W 001°06'7 7.5
2016-Feb-09 20:34N 50°43' W 000°59'1818.3
2016-Feb-09 19:33N 50°25' W 000°51'3819.1
2016-Feb-09 17:33N 49°49' W 000°32'2019.8
2016-Feb-09 16:34N 49°31' W 000°20'1413.7
2016-Feb-09 15:34N 49°17' W 000°15'0 0.0
2016-Feb-09 14:33N 49°17' W 000°15'0 0.1
2016-Feb-09 13:33N 49°17' W 000°15'1616.2
2016-Feb-09 12:33N 49°33' W 000°17'1818.2
2016-Feb-09 11:33N 49°51' W 000°25'4019.9
2016-Feb-09 09:33N 50°27' W 000°51'2019.6
2016-Feb-09 08:33N 50°44' W 001°04'4 4.3
2016-Feb-09 07:33N 50°49' W 001°06'0 0.0
2016-Feb-09 06:33N 50°49' W 001°06'9 9.2
2016-Feb-09 05:33N 50°41' W 000°58'1616.0
2016-Feb-09 04:33N 50°25' W 000°59'6212.4
2016-Feb-08 23:33N 49°26' W 000°28'1110.7
2016-Feb-08 22:33N 49°20' W 000°14'3 2.7
2016-Feb-08 21:33N 49°17' W 000°15'0 0.0
2016-Feb-08 20:34N 49°17' W 000°15'10 9.7
2016-Feb-08 19:33N 49°27' W 000°18'5919.4
2016-Feb-08 16:32N 50°23' W 000°45'1717.6
2016-Feb-08 15:33N 50°38' W 000°57'1211.8
2016-Feb-08 14:33N 50°49' W 001°06'0 0.0
2016-Feb-08 13:33N 50°49' W 001°06'6 6.5
2016-Feb-08 12:33N 50°43' W 001°01'1818.3
2016-Feb-08 11:34N 50°26' W 000°52'4119.0
2016-Feb-08 09:22N 49°45' W 000°40'1919.3
2016-Feb-08 08:23N 49°27' W 000°28'1315.9
2016-Feb-08 07:33N 49°17' W 000°15'0 0.0
2016-Feb-08 06:33N 49°17' W 000°15'0 0.0
2016-Feb-08 05:33N 49°17' W 000°15'1612.9
2016-Feb-08 04:18N 49°33' W 000°19'1114.3
2016-Feb-08 03:33N 49°44' W 000°23'5116.9
2016-Feb-08 00:33N 50°30' W 000°55'1313.4
2016-Feb-07 23:33N 50°43' W 001°00'7 6.7
2016-Feb-07 22:33N 50°49' W 001°06'0 0.0
2016-Feb-07 21:33N 50°49' W 001°06'5 5.2
2016-Feb-07 20:33N 50°44' W 001°03'1818.1
2016-Feb-07 19:33N 50°27' W 000°55'5919.6
2016-Feb-07 16:33N 49°31' W 000°22'1515.0
2016-Feb-07 15:34N 49°17' W 000°15'0 0.0
2016-Feb-07 14:34N 49°17' W 000°15'5 4.7
2016-Feb-07 13:34N 49°22' W 000°14'2019.5
2016-Feb-07 12:33N 49°41' W 000°23'4419.8
2016-Feb-07 10:20N 50°23' W 000°45'1620.3
2016-Feb-07 09:33N 50°36' W 000°57'1413.6
2016-Feb-07 08:33N 50°49' W 001°06'0 0.0
2016-Feb-07 07:33N 50°49' W 001°06'0 0.1
2016-Feb-07 06:34N 50°49' W 001°06'1312.5
2016-Feb-07 05:33N 50°37' W 001°00'6014.1
2016-Feb-07 01:17N 49°36' W 001°03'912.3
2016-Feb-07 00:33N 49°32' W 000°51'1211.6
2016-Feb-06 23:33N 49°28' W 000°35'1111.0
2016-Feb-06 22:33N 49°25' W 000°18'8 7.6
2016-Feb-06 21:33N 49°17' W 000°15'0 0.0
2016-Feb-06 20:33N 49°17' W 000°15'1211.7
2016-Feb-06 19:33N 49°29' W 000°15'1817.8
2016-Feb-06 18:33N 49°46' W 000°25'3618.0
2016-Feb-06 16:33N 50°19' W 000°47'1818.4
2016-Feb-06 15:33N 50°36' W 000°57'1413.7
2016-Feb-06 14:33N 50°49' W 001°06'0 0.0
2016-Feb-06 13:34N 50°49' W 001°06'4 3.7
2016-Feb-06 12:34N 50°45' W 001°05'1818.3
2016-Feb-06 11:33N 50°28' W 000°53'3718.2
2016-Feb-06 09:30N 49°54' W 000°32'1718.1
2016-Feb-06 08:33N 49°37' W 000°24'2019.6
2016-Feb-06 07:33N 49°19' W 000°15'1 1.3
2016-Feb-06 06:33N 49°17' W 000°15'0 0.0
2016-Feb-06 05:33N 49°17' W 000°15'1212.1
2016-Feb-06 04:33N 49°29' W 000°20'5713.5
2016-Feb-06 00:21N 50°22' W 000°51'1013.3
2016-Feb-05 23:33N 50°32' W 000°56'1313.3
2016-Feb-05 22:33N 50°44' W 001°04'4 4.4
2016-Feb-05 21:33N 50°49' W 001°06'0 0.0
2016-Feb-05 20:33N 50°49' W 001°06'1 0.9
2016-Feb-05 19:33N 50°48' W 001°07'1615.6
2016-Feb-05 18:34N 50°34' W 000°56'4815.9
2016-Feb-05 15:33N 49°49' W 000°31'1212.1
2016-Feb-05 14:33N 49°38' W 000°24'1615.6
2016-Feb-05 13:33N 49°23' W 000°15'6 6.0
2016-Feb-05 12:33N 49°17' W 000°15'0 0.0
2016-Feb-05 11:34N 49°17' W 000°15'0 0.0
2016-Feb-05 10:33N 49°17' W 000°15'0 0.0
2016-Feb-05 09:33N 49°17' W 000°15'0 0.0
2016-Feb-05 08:34N 49°17' W 000°15'0 0.0
2016-Feb-05 07:33N 49°17' W 000°15'0 0.0
2016-Feb-05 06:33N 49°17' W 000°15'1010.5
2016-Feb-05 05:33N 49°28' W 000°18'1616.4
2016-Feb-05 04:33N 49°43' W 000°28'3511.5
2016-Feb-05 01:33N 50°16' W 000°43'1515.4
2016-Feb-05 00:33N 50°30' W 000°51'1515.1
2016-Feb-04 23:34N 50°44' W 001°03'6 5.5
2016-Feb-04 22:34N 50°49' W 001°06'0 0.0
2016-Feb-04 21:34N 50°49' W 001°06'5 4.6
2016-Feb-04 20:34N 50°44' W 001°04'1514.7
2016-Feb-04 19:33N 50°30' W 001°06'11 1.2
2016-Feb-04 10:31N 50°21' W 001°18'1415.1
2016-Feb-04 09:34N 50°35' W 001°09'1313.0
2016-Feb-04 08:33N 50°48' W 001°07'1 1.3
2016-Feb-04 07:33N 50°49' W 001°06'0 0.1
2016-Feb-04 06:34N 50°49' W 001°06'1211.7
2016-Feb-04 05:34N 50°38' W 000°59'6912.9
2016-Feb-04 00:10N 49°30' W 000°35'6 9.9
2016-Feb-03 23:33N 49°27' W 000°26'1010.1
2016-Feb-03 22:33N 49°21' W 000°15'4 3.5
2016-Feb-03 21:33N 49°17' W 000°15'0 0.0
2016-Feb-03 20:34N 49°17' W 000°15'1111.2
2016-Feb-03 19:33N 49°29' W 000°16'1919.2
2016-Feb-03 18:33N 49°46' W 000°28'3819.1
2016-Feb-03 16:33N 50°22' W 000°47'1919.0
2016-Feb-03 15:34N 50°40' W 000°59'1010.0
2016-Feb-03 14:34N 50°49' W 001°06'0 0.0
2016-Feb-03 13:33N 50°49' W 001°06'5 5.0
2016-Feb-03 12:34N 50°44' W 001°03'1817.7
2016-Feb-03 11:34N 50°27' W 000°54'3819.1
2016-Feb-03 09:33N 49°51' W 000°33'1919.4
2016-Feb-03 08:33N 49°34' W 000°21'1616.1
2016-Feb-03 07:33N 49°18' W 000°15'1 0.6
2016-Feb-03 06:33N 49°17' W 000°15'0 0.0
2016-Feb-03 05:33N 49°17' W 000°15'1313.2
2016-Feb-03 04:33N 49°30' W 000°19'1515.1
2016-Feb-03 03:33N 49°45' W 000°27'4414.8
2016-Feb-03 00:33N 50°26' W 000°51'1615.6
2016-Feb-02 23:33N 50°41' W 000°58'9 9.0
2016-Feb-02 22:33N 50°49' W 001°06'0 0.0
2016-Feb-02 21:33N 50°49' W 001°06'4 4.5
2016-Feb-02 20:34N 50°44' W 001°04'1918.5
2016-Feb-02 19:34N 50°28' W 000°50'3819.0
2016-Feb-02 17:33N 49°53' W 000°28'  
Track history (hours):
 
Tides and Currents Weather Stations Pressure Air Temp Water Temp Dewpoint Dewpoint Depression Visibility Wind Speed Wind Dir Waves Ship Positions

Mont Saint Michel

Last reported at 2016-Feb-12 17:33 UTC. Time now 2016-Feb-12 18:09 UTC.
Position N 50°26' W 000°58'.

Length 173 m; beam 29 m.

Type: Ship. MMSI: 227023100.

Date/timePositionNaut miles runAvg speedWind from/ knotsBaromVisibWave heightAir tempDewpointWater temp
2016-Feb-12 17:33N 50°26' W 000°58'3316.6
2016-Feb-12 15:33N 49°56' W 000°36'1717.0
2016-Feb-12 14:34N 49°40' W 000°26'1716.6
2016-Feb-12 13:33N 49°25' W 000°16'7 7.4
2016-Feb-12 12:33N 49°17' W 000°15'0 0.0
2016-Feb-12 11:33N 49°17' W 000°15'0 0.0
2016-Feb-12 10:33N 49°17' W 000°15'0 0.0
2016-Feb-12 09:33N 49°17' W 000°15'0 0.0
2016-Feb-12 08:33N 49°17' W 000°15'0 0.0
2016-Feb-12 07:33N 49°17' W 000°15'0 0.0
2016-Feb-12 06:33N 49°17' W 000°15'10 9.6
2016-Feb-12 05:33N 49°27' W 000°17'1515.0
2016-Feb-12 04:33N 49°40' W 000°27'1313.1
2016-Feb-12 03:33N 49°53' W 000°33'3313.7
2016-Feb-12 01:07N 50°24' W 000°51'814.4
2016-Feb-12 00:33N 50°32' W 000°55'1414.2
2016-Feb-11 23:34N 50°45' W 001°05'4 4.1
2016-Feb-11 22:34N 50°49' W 001°06'0 0.0
2016-Feb-11 21:34N 50°49' W 001°06'5 5.1
2016-Feb-11 20:33N 50°44' W 001°03'1818.4
2016-Feb-11 19:33N 50°27' W 000°53'3919.3
2016-Feb-11 17:33N 49°50' W 000°32'2121.1
2016-Feb-11 16:33N 49°31' W 000°19'1414.1
2016-Feb-11 15:33N 49°17' W 000°15'0 0.0
2016-Feb-11 14:33N 49°17' W 000°15'4 4.0
2016-Feb-11 13:33N 49°21' W 000°14'2019.9
2016-Feb-11 12:34N 49°41' W 000°21'4219.9
2016-Feb-11 10:28N 50°20' W 000°44'1820.3
2016-Feb-11 09:34N 50°36' W 000°58'1313.4
2016-Feb-11 08:33N 50°48' W 001°07'1 0.9
2016-Feb-11 07:34N 50°49' W 001°06'1 0.9
2016-Feb-11 06:34N 50°48' W 001°07'1313.3
2016-Feb-11 05:33N 50°36' W 000°58'1211.9
2016-Feb-11 04:33N 50°25' W 000°52'3511.8
2016-Feb-11 01:33N 49°52' W 000°33'1212.0
2016-Feb-11 00:33N 49°41' W 000°26'1211.7
2016-Feb-10 23:34N 49°30' W 000°19'1212.0
2016-Feb-10 22:33N 49°18' W 000°15'1 0.7
2016-Feb-10 21:33N 49°17' W 000°15'0 0.0
2016-Feb-10 20:33N 49°17' W 000°15'1110.6
2016-Feb-10 19:34N 49°27' W 000°21'2121.1
2016-Feb-10 18:34N 49°47' W 000°32'4120.5
2016-Feb-10 16:33N 50°25' W 000°55'1918.9
2016-Feb-10 15:34N 50°44' W 001°03'5 5.5
2016-Feb-10 14:33N 50°49' W 001°06'0 0.4
2016-Feb-10 13:33N 50°49' W 001°06'1414.1
2016-Feb-10 12:33N 50°36' W 000°57'3817.0
2016-Feb-10 10:20N 50°02' W 000°31'1316.5
2016-Feb-10 09:34N 49°49' W 000°27'1717.4
2016-Feb-10 08:34N 49°33' W 000°20'1615.6
2016-Feb-10 07:33N 49°17' W 000°15'0 0.1
2016-Feb-10 06:34N 49°17' W 000°15'0 0.1
2016-Feb-10 05:34N 49°17' W 000°15'1312.7
2016-Feb-10 04:33N 49°30' W 000°18'1717.4
2016-Feb-10 03:33N 49°46' W 000°29'4017.0
2016-Feb-10 01:10N 50°23' W 000°52'1016.1
2016-Feb-10 00:33N 50°33' W 000°56'1414.0
2016-Feb-09 23:33N 50°46' W 001°05'3 3.2
2016-Feb-09 22:34N 50°49' W 001°06'0 0.0
2016-Feb-09 21:33N 50°49' W 001°06'7 7.5
2016-Feb-09 20:34N 50°43' W 000°59'1818.3
2016-Feb-09 19:33N 50°25' W 000°51'3819.1
2016-Feb-09 17:33N 49°49' W 000°32'2019.8
2016-Feb-09 16:34N 49°31' W 000°20'1413.7
2016-Feb-09 15:34N 49°17' W 000°15'0 0.0
2016-Feb-09 14:33N 49°17' W 000°15'0 0.1
2016-Feb-09 13:33N 49°17' W 000°15'1616.2
2016-Feb-09 12:33N 49°33' W 000°17'1818.2
2016-Feb-09 11:33N 49°51' W 000°25'4019.9
2016-Feb-09 09:33N 50°27' W 000°51'2019.6
2016-Feb-09 08:33N 50°44' W 001°04'4 4.3
2016-Feb-09 07:33N 50°49' W 001°06'0 0.0
2016-Feb-09 06:33N 50°49' W 001°06'9 9.2
2016-Feb-09 05:33N 50°41' W 000°58'1616.0
2016-Feb-09 04:33N 50°25' W 000°59'6212.4
2016-Feb-08 23:33N 49°26' W 000°28'1110.7
2016-Feb-08 22:33N 49°20' W 000°14'3 2.7
2016-Feb-08 21:33N 49°17' W 000°15'0 0.0
2016-Feb-08 20:34N 49°17' W 000°15'10 9.7
2016-Feb-08 19:33N 49°27' W 000°18'5919.4
2016-Feb-08 16:32N 50°23' W 000°45'1717.6
2016-Feb-08 15:33N 50°38' W 000°57'1211.8
2016-Feb-08 14:33N 50°49' W 001°06'0 0.0
2016-Feb-08 13:33N 50°49' W 001°06'6 6.5
2016-Feb-08 12:33N 50°43' W 001°01'1818.3
2016-Feb-08 11:34N 50°26' W 000°52'4119.0
2016-Feb-08 09:22N 49°45' W 000°40'1919.3
2016-Feb-08 08:23N 49°27' W 000°28'1315.9
2016-Feb-08 07:33N 49°17' W 000°15'0 0.0
2016-Feb-08 06:33N 49°17' W 000°15'0 0.0
2016-Feb-08 05:33N 49°17' W 000°15'1612.9
2016-Feb-08 04:18N 49°33' W 000°19'1114.3
2016-Feb-08 03:33N 49°44' W 000°23'5116.9
2016-Feb-08 00:33N 50°30' W 000°55'1313.4
2016-Feb-07 23:33N 50°43' W 001°00'7 6.7
2016-Feb-07 22:33N 50°49' W 001°06'0 0.0
2016-Feb-07 21:33N 50°49' W 001°06'5 5.2
2016-Feb-07 20:33N 50°44' W 001°03'1818.1
2016-Feb-07 19:33N 50°27' W 000°55'5919.6
2016-Feb-07 16:33N 49°31' W 000°22'1515.0
2016-Feb-07 15:34N 49°17' W 000°15'0 0.0
2016-Feb-07 14:34N 49°17' W 000°15'5 4.7
2016-Feb-07 13:34N 49°22' W 000°14'2019.5
2016-Feb-07 12:33N 49°41' W 000°23'4419.8
2016-Feb-07 10:20N 50°23' W 000°45'1620.3
2016-Feb-07 09:33N 50°36' W 000°57'1413.6
2016-Feb-07 08:33N 50°49' W 001°06'0 0.0
2016-Feb-07 07:33N 50°49' W 001°06'0 0.1
2016-Feb-07 06:34N 50°49' W 001°06'1312.5
2016-Feb-07 05:33N 50°37' W 001°00'6014.1
2016-Feb-07 01:17N 49°36' W 001°03'912.3
2016-Feb-07 00:33N 49°32' W 000°51'1211.6
2016-Feb-06 23:33N 49°28' W 000°35'1111.0
2016-Feb-06 22:33N 49°25' W 000°18'8 7.6
2016-Feb-06 21:33N 49°17' W 000°15'0 0.0
2016-Feb-06 20:33N 49°17' W 000°15'1211.7
2016-Feb-06 19:33N 49°29' W 000°15'1817.8
2016-Feb-06 18:33N 49°46' W 000°25'3618.0
2016-Feb-06 16:33N 50°19' W 000°47'1818.4
2016-Feb-06 15:33N 50°36' W 000°57'1413.7
2016-Feb-06 14:33N 50°49' W 001°06'0 0.0
2016-Feb-06 13:34N 50°49' W 001°06'4 3.7
2016-Feb-06 12:34N 50°45' W 001°05'1818.3
2016-Feb-06 11:33N 50°28' W 000°53'3718.2
2016-Feb-06 09:30N 49°54' W 000°32'1718.1
2016-Feb-06 08:33N 49°37' W 000°24'2019.6
2016-Feb-06 07:33N 49°19' W 000°15'1 1.3
2016-Feb-06 06:33N 49°17' W 000°15'0 0.0
2016-Feb-06 05:33N 49°17' W 000°15'1212.1
2016-Feb-06 04:33N 49°29' W 000°20'5713.5
2016-Feb-06 00:21N 50°22' W 000°51'1013.3
2016-Feb-05 23:33N 50°32' W 000°56'1313.3
2016-Feb-05 22:33N 50°44' W 001°04'4 4.4
2016-Feb-05 21:33N 50°49' W 001°06'0 0.0
2016-Feb-05 20:33N 50°49' W 001°06'1 0.9
2016-Feb-05 19:33N 50°48' W 001°07'1615.6
2016-Feb-05 18:34N 50°34' W 000°56'4815.9
2016-Feb-05 15:33N 49°49' W 000°31'1212.1
2016-Feb-05 14:33N 49°38' W 000°24'1615.6
2016-Feb-05 13:33N 49°23' W 000°15'6 6.0
2016-Feb-05 12:33N 49°17' W 000°15'0 0.0
2016-Feb-05 11:34N 49°17' W 000°15'0 0.0
2016-Feb-05 10:33N 49°17' W 000°15'0 0.0
2016-Feb-05 09:33N 49°17' W 000°15'0 0.0
2016-Feb-05 08:34N 49°17' W 000°15'0 0.0
2016-Feb-05 07:33N 49°17' W 000°15'0 0.0
2016-Feb-05 06:33N 49°17' W 000°15'1010.5
2016-Feb-05 05:33N 49°28' W 000°18'1616.4
2016-Feb-05 04:33N 49°43' W 000°28'3511.5
2016-Feb-05 01:33N 50°16' W 000°43'1515.4
2016-Feb-05 00:33N 50°30' W 000°51'1515.1
2016-Feb-04 23:34N 50°44' W 001°03'6 5.5
2016-Feb-04 22:34N 50°49' W 001°06'0 0.0
2016-Feb-04 21:34N 50°49' W 001°06'5 4.6
2016-Feb-04 20:34N 50°44' W 001°04'1514.7
2016-Feb-04 19:33N 50°30' W 001°06'11 1.2
2016-Feb-04 10:31N 50°21' W 001°18'1415.1
2016-Feb-04 09:34N 50°35' W 001°09'1313.0
2016-Feb-04 08:33N 50°48' W 001°07'1 1.3
2016-Feb-04 07:33N 50°49' W 001°06'0 0.1
2016-Feb-04 06:34N 50°49' W 001°06'1211.7
2016-Feb-04 05:34N 50°38' W 000°59'6912.9
2016-Feb-04 00:10N 49°30' W 000°35'6 9.9
2016-Feb-03 23:33N 49°27' W 000°26'1010.1
2016-Feb-03 22:33N 49°21' W 000°15'4 3.5
2016-Feb-03 21:33N 49°17' W 000°15'0 0.0
2016-Feb-03 20:34N 49°17' W 000°15'1111.2
2016-Feb-03 19:33N 49°29' W 000°16'1919.2
2016-Feb-03 18:33N 49°46' W 000°28'3819.1
2016-Feb-03 16:33N 50°22' W 000°47'1919.0
2016-Feb-03 15:34N 50°40' W 000°59'1010.0
2016-Feb-03 14:34N 50°49' W 001°06'0 0.0
2016-Feb-03 13:33N 50°49' W 001°06'5 5.0
2016-Feb-03 12:34N 50°44' W 001°03'1817.7
2016-Feb-03 11:34N 50°27' W 000°54'3819.1
2016-Feb-03 09:33N 49°51' W 000°33'1919.4
2016-Feb-03 08:33N 49°34' W 000°21'1616.1
2016-Feb-03 07:33N 49°18' W 000°15'1 0.6
2016-Feb-03 06:33N 49°17' W 000°15'0 0.0
2016-Feb-03 05:33N 49°17' W 000°15'1313.2
2016-Feb-03 04:33N 49°30' W 000°19'1515.1
2016-Feb-03 03:33N 49°45' W 000°27'4414.8
2016-Feb-03 00:33N 50°26' W 000°51'1615.6
2016-Feb-02 23:33N 50°41' W 000°58'9 9.0
2016-Feb-02 22:33N 50°49' W 001°06'0 0.0
2016-Feb-02 21:33N 50°49' W 001°06'4 4.5
2016-Feb-02 20:34N 50°44' W 001°04'1918.5
2016-Feb-02 19:34N 50°28' W 000°50'3819.0
2016-Feb-02 17:33N 49°53' W 000°28'  

Dump ship's entire track history